Albert Maersk — OUOW2 — position and weather

sailwx.info

Track history (hours):
 
Tides and Currents Weather Stations Pressure Air Temp Water Temp Dewpoint Dewpoint Depression Visibility Wind Speed Wind Dir Waves Ship Positions

Albert Maersk

Last reported at 2017-Oct-22 20:29 UTC. Time now 2017-Oct-22 20:57 UTC.
Position N 32°08' W 081°09'.

MMSI: 220259928.

Date/timePositionNaut miles runAvg speedWind from/ knotsBaromVisibWave heightAir tempDewpointWater temp
2017-Oct-22 20:29N 32°08' W 081°09'0 0.0
2017-Oct-22 19:59N 32°08' W 081°09'0 0.0
2017-Oct-22 19:29N 32°08' W 081°09'0 0.0
2017-Oct-22 18:59N 32°08' W 081°09'0 0.0
2017-Oct-22 18:23N 32°08' W 081°09'0 0.0
2017-Oct-22 17:53N 32°08' W 081°09'0 0.0
2017-Oct-22 17:29N 32°08' W 081°09'0 0.0
2017-Oct-22 16:59N 32°08' W 081°09'0 0.0
2017-Oct-22 16:17N 32°08' W 081°09'0 0.0
2017-Oct-22 15:59N 32°08' W 081°09'0 0.0
2017-Oct-22 15:29N 32°08' W 081°09'0 0.0
2017-Oct-22 14:53N 32°08' W 081°09'0 0.0
2017-Oct-22 14:29N 32°08' W 081°09'0 0.0
2017-Oct-22 13:59N 32°08' W 081°09'0 0.0
2017-Oct-22 13:29N 32°08' W 081°09'0 0.0
2017-Oct-22 12:59N 32°08' W 081°09'0 0.0
2017-Oct-22 12:29N 32°08' W 081°09'0 0.0
2017-Oct-22 11:59N 32°08' W 081°09'0 0.0
2017-Oct-22 11:23N 32°08' W 081°09'0 0.0
2017-Oct-22 11:00N 32°08' W 081°09'0 0.6
2017-Oct-22 10:30N 32°08' W 081°08'2 3.4
2017-Oct-22 10:00N 32°06' W 081°07'3 5.8
2017-Oct-22 09:30N 32°05' W 081°04'3 6.8
2017-Oct-22 09:01N 32°06' W 081°01'5 9.0
2017-Oct-22 08:30N 32°03' W 080°56'4 8.0
2017-Oct-22 08:00N 32°02' W 080°52'510.9
2017-Oct-22 07:30N 31°59' W 080°46'611.6
2017-Oct-22 07:00N 31°57' W 080°40'4 8.4
2017-Oct-22 06:30N 31°57' W 080°35'510.9
2017-Oct-22 06:00N 31°59' W 080°29'611.4
2017-Oct-22 05:30N 32°00' W 080°23'911.4
2017-Oct-22 04:43N 32°03' W 080°13'360 8.7
2017-Oct-20 11:32N 36°49' W 075°47'314.3
2017-Oct-20 11:20N 36°51' W 075°50'514.2
2017-Oct-20 11:00N 36°54' W 075°55'612.9
2017-Oct-20 10:30N 36°57' W 076°02'713.1
2017-Oct-20 10:00N 36°59' W 076°09'612.8
2017-Oct-20 09:30N 37°00' W 076°17'510.3
2017-Oct-20 09:00N 36°55' W 076°20'3 5.7
2017-Oct-20 08:30N 36°53' W 076°21'0 0.4
2017-Oct-20 08:01N 36°52' W 076°21'0 0.0
2017-Oct-20 07:23N 36°52' W 076°21'0 0.0
2017-Oct-20 06:59N 36°52' W 076°21'0 0.0
2017-Oct-20 06:23N 36°52' W 076°21'0 0.0
2017-Oct-20 05:59N 36°52' W 076°21'0 0.0
2017-Oct-20 05:29N 36°52' W 076°21'0 0.0
2017-Oct-20 04:53N 36°52' W 076°21'0 0.0
2017-Oct-20 04:29N 36°52' W 076°21'0 0.0
2017-Oct-20 03:59N 36°52' W 076°21'0 0.0
2017-Oct-20 03:17N 36°52' W 076°21'0 0.0
2017-Oct-20 02:47N 36°52' W 076°21'0 0.0
2017-Oct-20 02:26N 36°52' W 076°21'0 0.0
2017-Oct-20 01:59N 36°52' W 076°21'0 0.0
2017-Oct-20 01:29N 36°52' W 076°21'0 0.0
2017-Oct-20 00:59N 36°52' W 076°21'0 0.0
2017-Oct-19 21:53N 36°52' W 076°21'0 0.0
2017-Oct-19 21:20N 36°52' W 076°21'0 0.0
2017-Oct-19 20:56N 36°52' W 076°21'0 0.0
2017-Oct-19 20:23N 36°52' W 076°21'0 0.0
2017-Oct-19 19:59N 36°52' W 076°21'0 0.0
2017-Oct-19 19:29N 36°52' W 076°21'0 0.0
2017-Oct-19 18:59N 36°52' W 076°21'0 0.0
2017-Oct-19 18:29N 36°52' W 076°21'0 0.0
2017-Oct-19 17:50N 36°52' W 076°21'0 0.0
2017-Oct-19 16:41N 36°52' W 076°21'0 0.0
2017-Oct-19 16:29N 36°52' W 076°21'0 0.0
2017-Oct-19 15:59N 36°52' W 076°21'0 0.0
2017-Oct-19 15:20N 36°52' W 076°21'0 0.5
2017-Oct-19 15:00N 36°53' W 076°21'1 2.9
2017-Oct-19 14:30N 36°54' W 076°20'4 8.3
2017-Oct-19 14:00N 36°58' W 076°20'611.7
2017-Oct-19 13:30N 37°00' W 076°13'713.8
2017-Oct-19 13:00N 36°58' W 076°05'713.8
2017-Oct-19 12:30N 36°56' W 075°57'4 9.0
2017-Oct-19 12:00N 36°53' W 075°52'4 7.8
2017-Oct-19 11:28N 36°51' W 075°48'10110.4
2017-Oct-19 01:49N 38°13' W 074°35'510.9
2017-Oct-19 01:20N 38°18' W 074°32'510.6
2017-Oct-19 00:52N 38°22' W 074°29'73 9.7
2017-Oct-18 17:24N 39°30' W 073°54'613.9
2017-Oct-18 17:00N 39°35' W 073°53'713.9
2017-Oct-18 16:30N 39°42' W 073°52'714.0
2017-Oct-18 16:00N 39°49' W 073°52'714.0
2017-Oct-18 15:29N 39°56' W 073°51'2114.1
2017-Oct-18 14:00N 40°17' W 073°50'713.4
2017-Oct-18 13:28N 40°24' W 073°50'510.6
2017-Oct-18 12:59N 40°29' W 073°53'715.4
2017-Oct-18 12:31N 40°32' W 074°02'713.1
2017-Oct-18 12:00N 40°39' W 074°04'3 6.7
2017-Oct-18 11:30N 40°39' W 074°08'2 3.7
2017-Oct-18 11:00N 40°40' W 074°08'1 1.4
2017-Oct-18 10:30N 40°41' W 074°09'0 0.0
2017-Oct-18 09:59N 40°41' W 074°09'0 0.0
2017-Oct-18 09:29N 40°41' W 074°09'0 0.0
2017-Oct-18 08:59N 40°41' W 074°09'0 0.0
2017-Oct-18 08:29N 40°41' W 074°09'0 0.0
2017-Oct-18 07:59N 40°41' W 074°09'0 0.0
2017-Oct-18 07:29N 40°41' W 074°09'0 0.0
2017-Oct-18 06:59N 40°41' W 074°09'0 0.0
2017-Oct-18 06:29N 40°41' W 074°09'0 0.0
2017-Oct-18 05:59N 40°41' W 074°09'0 0.0
2017-Oct-18 05:29N 40°41' W 074°09'0 0.0
2017-Oct-18 04:59N 40°41' W 074°09'0 0.0
2017-Oct-18 04:29N 40°41' W 074°09'0 0.0
2017-Oct-18 03:59N 40°41' W 074°09'0 0.0
2017-Oct-18 03:29N 40°41' W 074°09'0 0.0
2017-Oct-18 02:59N 40°41' W 074°09'0 0.0
2017-Oct-18 02:29N 40°41' W 074°09'0 0.0
2017-Oct-18 01:59N 40°41' W 074°09'0 0.0
2017-Oct-18 01:26N 40°41' W 074°09'0 0.0
2017-Oct-18 00:59N 40°41' W 074°09'0 0.0
2017-Oct-18 00:29N 40°41' W 074°09'0 0.0
2017-Oct-17 23:53N 40°41' W 074°09'0 0.0
2017-Oct-17 23:26N 40°41' W 074°09'0 0.0
2017-Oct-17 22:59N 40°41' W 074°09'0 0.0
2017-Oct-17 22:29N 40°41' W 074°09'0 0.0
2017-Oct-17 21:53N 40°41' W 074°09'0 0.0
2017-Oct-17 21:29N 40°41' W 074°09'0 0.0
2017-Oct-17 20:59N 40°41' W 074°09'0 0.0
2017-Oct-17 20:29N 40°41' W 074°09'0 0.0
2017-Oct-17 19:56N 40°41' W 074°09'0 0.0
2017-Oct-17 19:26N 40°41' W 074°09'0 0.0
2017-Oct-17 18:59N 40°41' W 074°09'0 0.0
2017-Oct-17 18:29N 40°41' W 074°09'0 0.0
2017-Oct-17 17:59N 40°41' W 074°09'0 0.0
2017-Oct-17 17:29N 40°41' W 074°09'0 0.0
2017-Oct-17 16:59N 40°41' W 074°09'0 0.0
2017-Oct-17 16:29N 40°41' W 074°09'0 0.0
2017-Oct-17 15:56N 40°41' W 074°09'0 0.4
2017-Oct-17 15:30N 40°41' W 074°09'2 4.2
2017-Oct-17 15:01N 40°39' W 074°09'2 4.5
2017-Oct-17 14:30N 40°39' W 074°06'3 5.3
2017-Oct-17 14:00N 40°37' W 074°03'510.2
2017-Oct-17 13:30N 40°33' W 074°01'612.6
2017-Oct-17 13:00N 40°29' W 073°54'611.6
2017-Oct-17 12:30N 40°27' W 073°47'4 6.7
2017-Oct-17 11:53N 40°28' W 073°42'2 0.2
2017-Oct-17 03:48N 40°28' W 073°40'0 0.0
2017-Oct-17 03:15N 40°28' W 073°40'0 0.1
2017-Oct-17 03:00N 40°28' W 073°40'0 0.0
2017-Oct-16 22:18N 40°28' W 073°40'0 0.1
2017-Oct-16 21:54N 40°28' W 073°40'0 0.0
2017-Oct-16 21:24N 40°28' W 073°40'0 0.0
2017-Oct-16 18:05N 40°29' W 073°40'0 1.7
2017-Oct-16 18:00N 40°29' W 073°39'  
Track history (hours):
 
Tides and Currents Weather Stations Pressure Air Temp Water Temp Dewpoint Dewpoint Depression Visibility Wind Speed Wind Dir Waves Ship Positions

Albert Maersk

Last reported at 2017-Oct-22 20:29 UTC. Time now 2017-Oct-22 20:57 UTC.
Position N 32°08' W 081°09'.

MMSI: 220259928.

Date/timePositionNaut miles runAvg speedWind from/ knotsBaromVisibWave heightAir tempDewpointWater temp
2017-Oct-22 20:29N 32°08' W 081°09'0 0.0
2017-Oct-22 19:59N 32°08' W 081°09'0 0.0
2017-Oct-22 19:29N 32°08' W 081°09'0 0.0
2017-Oct-22 18:59N 32°08' W 081°09'0 0.0
2017-Oct-22 18:23N 32°08' W 081°09'0 0.0
2017-Oct-22 17:53N 32°08' W 081°09'0 0.0
2017-Oct-22 17:29N 32°08' W 081°09'0 0.0
2017-Oct-22 16:59N 32°08' W 081°09'0 0.0
2017-Oct-22 16:17N 32°08' W 081°09'0 0.0
2017-Oct-22 15:59N 32°08' W 081°09'0 0.0
2017-Oct-22 15:29N 32°08' W 081°09'0 0.0
2017-Oct-22 14:53N 32°08' W 081°09'0 0.0
2017-Oct-22 14:29N 32°08' W 081°09'0 0.0
2017-Oct-22 13:59N 32°08' W 081°09'0 0.0
2017-Oct-22 13:29N 32°08' W 081°09'0 0.0
2017-Oct-22 12:59N 32°08' W 081°09'0 0.0
2017-Oct-22 12:29N 32°08' W 081°09'0 0.0
2017-Oct-22 11:59N 32°08' W 081°09'0 0.0
2017-Oct-22 11:23N 32°08' W 081°09'0 0.0
2017-Oct-22 11:00N 32°08' W 081°09'0 0.6
2017-Oct-22 10:30N 32°08' W 081°08'2 3.4
2017-Oct-22 10:00N 32°06' W 081°07'3 5.8
2017-Oct-22 09:30N 32°05' W 081°04'3 6.8
2017-Oct-22 09:01N 32°06' W 081°01'5 9.0
2017-Oct-22 08:30N 32°03' W 080°56'4 8.0
2017-Oct-22 08:00N 32°02' W 080°52'510.9
2017-Oct-22 07:30N 31°59' W 080°46'611.6
2017-Oct-22 07:00N 31°57' W 080°40'4 8.4
2017-Oct-22 06:30N 31°57' W 080°35'510.9
2017-Oct-22 06:00N 31°59' W 080°29'611.4
2017-Oct-22 05:30N 32°00' W 080°23'911.4
2017-Oct-22 04:43N 32°03' W 080°13'360 8.7
2017-Oct-20 11:32N 36°49' W 075°47'314.3
2017-Oct-20 11:20N 36°51' W 075°50'514.2
2017-Oct-20 11:00N 36°54' W 075°55'612.9
2017-Oct-20 10:30N 36°57' W 076°02'713.1
2017-Oct-20 10:00N 36°59' W 076°09'612.8
2017-Oct-20 09:30N 37°00' W 076°17'510.3
2017-Oct-20 09:00N 36°55' W 076°20'3 5.7
2017-Oct-20 08:30N 36°53' W 076°21'0 0.4
2017-Oct-20 08:01N 36°52' W 076°21'0 0.0
2017-Oct-20 07:23N 36°52' W 076°21'0 0.0
2017-Oct-20 06:59N 36°52' W 076°21'0 0.0
2017-Oct-20 06:23N 36°52' W 076°21'0 0.0
2017-Oct-20 05:59N 36°52' W 076°21'0 0.0
2017-Oct-20 05:29N 36°52' W 076°21'0 0.0
2017-Oct-20 04:53N 36°52' W 076°21'0 0.0
2017-Oct-20 04:29N 36°52' W 076°21'0 0.0
2017-Oct-20 03:59N 36°52' W 076°21'0 0.0
2017-Oct-20 03:17N 36°52' W 076°21'0 0.0
2017-Oct-20 02:47N 36°52' W 076°21'0 0.0
2017-Oct-20 02:26N 36°52' W 076°21'0 0.0
2017-Oct-20 01:59N 36°52' W 076°21'0 0.0
2017-Oct-20 01:29N 36°52' W 076°21'0 0.0
2017-Oct-20 00:59N 36°52' W 076°21'0 0.0
2017-Oct-19 21:53N 36°52' W 076°21'0 0.0
2017-Oct-19 21:20N 36°52' W 076°21'0 0.0
2017-Oct-19 20:56N 36°52' W 076°21'0 0.0
2017-Oct-19 20:23N 36°52' W 076°21'0 0.0
2017-Oct-19 19:59N 36°52' W 076°21'0 0.0
2017-Oct-19 19:29N 36°52' W 076°21'0 0.0
2017-Oct-19 18:59N 36°52' W 076°21'0 0.0
2017-Oct-19 18:29N 36°52' W 076°21'0 0.0
2017-Oct-19 17:50N 36°52' W 076°21'0 0.0
2017-Oct-19 16:41N 36°52' W 076°21'0 0.0
2017-Oct-19 16:29N 36°52' W 076°21'0 0.0
2017-Oct-19 15:59N 36°52' W 076°21'0 0.0
2017-Oct-19 15:20N 36°52' W 076°21'0 0.5
2017-Oct-19 15:00N 36°53' W 076°21'1 2.9
2017-Oct-19 14:30N 36°54' W 076°20'4 8.3
2017-Oct-19 14:00N 36°58' W 076°20'611.7
2017-Oct-19 13:30N 37°00' W 076°13'713.8
2017-Oct-19 13:00N 36°58' W 076°05'713.8
2017-Oct-19 12:30N 36°56' W 075°57'4 9.0
2017-Oct-19 12:00N 36°53' W 075°52'4 7.8
2017-Oct-19 11:28N 36°51' W 075°48'10110.4
2017-Oct-19 01:49N 38°13' W 074°35'510.9
2017-Oct-19 01:20N 38°18' W 074°32'510.6
2017-Oct-19 00:52N 38°22' W 074°29'73 9.7
2017-Oct-18 17:24N 39°30' W 073°54'613.9
2017-Oct-18 17:00N 39°35' W 073°53'713.9
2017-Oct-18 16:30N 39°42' W 073°52'714.0
2017-Oct-18 16:00N 39°49' W 073°52'714.0
2017-Oct-18 15:29N 39°56' W 073°51'2114.1
2017-Oct-18 14:00N 40°17' W 073°50'713.4
2017-Oct-18 13:28N 40°24' W 073°50'510.6
2017-Oct-18 12:59N 40°29' W 073°53'715.4
2017-Oct-18 12:31N 40°32' W 074°02'713.1
2017-Oct-18 12:00N 40°39' W 074°04'3 6.7
2017-Oct-18 11:30N 40°39' W 074°08'2 3.7
2017-Oct-18 11:00N 40°40' W 074°08'1 1.4
2017-Oct-18 10:30N 40°41' W 074°09'0 0.0
2017-Oct-18 09:59N 40°41' W 074°09'0 0.0
2017-Oct-18 09:29N 40°41' W 074°09'0 0.0
2017-Oct-18 08:59N 40°41' W 074°09'0 0.0
2017-Oct-18 08:29N 40°41' W 074°09'0 0.0
2017-Oct-18 07:59N 40°41' W 074°09'0 0.0
2017-Oct-18 07:29N 40°41' W 074°09'0 0.0
2017-Oct-18 06:59N 40°41' W 074°09'0 0.0
2017-Oct-18 06:29N 40°41' W 074°09'0 0.0
2017-Oct-18 05:59N 40°41' W 074°09'0 0.0
2017-Oct-18 05:29N 40°41' W 074°09'0 0.0
2017-Oct-18 04:59N 40°41' W 074°09'0 0.0
2017-Oct-18 04:29N 40°41' W 074°09'0 0.0
2017-Oct-18 03:59N 40°41' W 074°09'0 0.0
2017-Oct-18 03:29N 40°41' W 074°09'0 0.0
2017-Oct-18 02:59N 40°41' W 074°09'0 0.0
2017-Oct-18 02:29N 40°41' W 074°09'0 0.0
2017-Oct-18 01:59N 40°41' W 074°09'0 0.0
2017-Oct-18 01:26N 40°41' W 074°09'0 0.0
2017-Oct-18 00:59N 40°41' W 074°09'0 0.0
2017-Oct-18 00:29N 40°41' W 074°09'0 0.0
2017-Oct-17 23:53N 40°41' W 074°09'0 0.0
2017-Oct-17 23:26N 40°41' W 074°09'0 0.0
2017-Oct-17 22:59N 40°41' W 074°09'0 0.0
2017-Oct-17 22:29N 40°41' W 074°09'0 0.0
2017-Oct-17 21:53N 40°41' W 074°09'0 0.0
2017-Oct-17 21:29N 40°41' W 074°09'0 0.0
2017-Oct-17 20:59N 40°41' W 074°09'0 0.0
2017-Oct-17 20:29N 40°41' W 074°09'0 0.0
2017-Oct-17 19:56N 40°41' W 074°09'0 0.0
2017-Oct-17 19:26N 40°41' W 074°09'0 0.0
2017-Oct-17 18:59N 40°41' W 074°09'0 0.0
2017-Oct-17 18:29N 40°41' W 074°09'0 0.0
2017-Oct-17 17:59N 40°41' W 074°09'0 0.0
2017-Oct-17 17:29N 40°41' W 074°09'0 0.0
2017-Oct-17 16:59N 40°41' W 074°09'0 0.0
2017-Oct-17 16:29N 40°41' W 074°09'0 0.0
2017-Oct-17 15:56N 40°41' W 074°09'0 0.4
2017-Oct-17 15:30N 40°41' W 074°09'2 4.2
2017-Oct-17 15:01N 40°39' W 074°09'2 4.5
2017-Oct-17 14:30N 40°39' W 074°06'3 5.3
2017-Oct-17 14:00N 40°37' W 074°03'510.2
2017-Oct-17 13:30N 40°33' W 074°01'612.6
2017-Oct-17 13:00N 40°29' W 073°54'611.6
2017-Oct-17 12:30N 40°27' W 073°47'4 6.7
2017-Oct-17 11:53N 40°28' W 073°42'2 0.2
2017-Oct-17 03:48N 40°28' W 073°40'0 0.0
2017-Oct-17 03:15N 40°28' W 073°40'0 0.1
2017-Oct-17 03:00N 40°28' W 073°40'0 0.0
2017-Oct-16 22:18N 40°28' W 073°40'0 0.1
2017-Oct-16 21:54N 40°28' W 073°40'0 0.0
2017-Oct-16 21:24N 40°28' W 073°40'0 0.0
2017-Oct-16 18:05N 40°29' W 073°40'0 1.7
2017-Oct-16 18:00N 40°29' W 073°39'  

Dump ship's entire track history